Latest Weather Observations for PORTABLE QFRG NR

IDQ60801

Issued at 5:32 am EST Monday 27 June 2022 (issued every 10 minutes, with the page automatically refreshed every 10 minutes)

About weather observations | Map of weather stations | Latest weather observations for QLD | Other Formats
Station Details ID: 250061 Name: PORTABLE QFRG Lat: -20.51 Lon: 147.62 Height: 106.0 m

Portable automatic weather stations (PAWS) are operated by other organisations, such as Fire and Emergency Services, and are included here by agreement. Portable stations may be deployed to a location for a short period and their location may be subject to change without notice. Wind observations from these stations are provided from heights of either three (3) or ten (10) metres above ground level (AGL).

Data from the previous 72 hours. | See also: Recent months for locations in Queensland
Date/Time
EST
Temp
°C
App
Temp
°C
Dew
Point
°C
Rel
Hum
%
Delta-T
°C
Wind Press
QNH
hPa
Press
MSL
hPa
Rain since
9am
mm
Dir  Spd
km/h
Gust
km/h
Spd
kts
Gust
kts
27/05:20am 13.5 13.6 11.4 87 1.1 WSW 2 4 1 2 - - 0.0
27/05:10am 13.8 13.6 11.8 88 1.1 SSW 4 6 2 3 - - 0.0
27/05:00am 14.8 15.3 12.8 88 1.1 SW 2 4 1 2 - - 0.0
27/04:50am 15.0 15.6 13.1 88 1.1 WSW 2 4 1 2 - - 0.0
27/04:40am 14.5 14.9 12.5 88 1.1 SSW 2 4 1 2 - - 0.0
27/04:30am 14.0 14.2 12.0 88 1.1 SSW 2 4 1 2 - - 0.0
27/04:20am 14.9 15.8 12.9 88 1.1 CALM 0 0 0 0 - - 0.0
27/04:10am 14.1 14.3 12.0 87 1.1 NE 2 4 1 2 - - 0.0
27/04:00am 14.0 13.4 11.6 85 1.3 E 6 6 3 3 - - 0.0
27/03:50am 14.9 14.6 12.6 86 1.3 S 6 6 3 3 - - 0.0
27/03:40am 15.5 16.5 13.2 86 1.3 CALM 0 0 0 0 - - 0.0
27/03:30am 15.7 16.4 13.3 86 1.3 NW 2 2 1 1 - - 0.0
27/03:20am 15.9 17.0 13.5 86 1.4 CALM 0 0 0 0 - - 0.0
27/03:10am 16.1 16.4 13.4 84 1.5 SW 4 4 2 2 - - 0.0
27/03:00am 16.3 16.7 13.8 85 1.4 W 4 4 2 2 - - 0.0
27/02:50am 16.1 16.1 13.7 86 1.4 WNW 6 6 3 3 - - 0.0
27/02:40am 16.1 16.5 13.8 86 1.3 NW 4 6 2 3 - - 0.0
27/02:30am 15.8 16.8 13.3 85 1.4 CALM 0 0 0 0 - - 0.0
27/02:20am 15.7 16.3 13.0 84 1.5 SW 2 4 1 2 - - 0.0
27/02:10am 16.4 16.7 13.4 82 1.7 W 4 6 2 3 - - 0.0
27/02:00am 16.6 16.6 13.7 83 1.6 WNW 6 6 3 3 - - 0.0
27/01:50am 17.0 17.1 14.0 82 1.7 NW 6 6 3 3 - - 0.0
27/01:40am 17.1 17.7 14.2 83 1.7 WNW 4 4 2 2 - - 0.0
27/01:30am 17.1 17.7 14.2 83 1.7 NW 4 4 2 2 - - 0.0
27/01:20am 17.3 18.7 14.3 82 1.7 CALM 0 2 0 1 - - 0.0
27/01:10am 17.2 18.5 14.2 82 1.7 CALM 0 2 0 1 - - 0.0
27/01:00am 17.2 18.0 13.7 80 2.0 SW 2 4 1 2 - - 0.0
27/12:50am 17.4 18.0 14.2 81 1.8 WNW 4 6 2 3 - - 0.0
27/12:40am 17.5 18.0 14.1 80 2.0 NW 4 4 2 2 - - 0.0
27/12:30am 17.8 18.4 14.2 79 2.1 NW 4 4 2 2 - - 0.0
27/12:20am 17.8 18.8 14.3 80 2.0 NNW 2 4 1 2 - - 0.0
27/12:10am 17.6 18.2 14.2 80 2.0 NNW 4 6 2 3 - - 0.0
27/12:00am 17.5 18.0 14.0 80 2.0 NNW 4 4 2 2 - - 0.0
 
Date/Time
EST
Temp
°C
App
Temp
°C
Dew
Point
°C
Rel
Hum
%
Delta-T
°C
Wind Press
QNH
hPa
Press
MSL
hPa
Rain since
9am
mm
Dir  Spd
km/h
Gust
km/h
Spd
kts
Gust
kts
26/11:50pm 17.6 18.5 13.9 79 2.1 NNW 2 2 1 1 - - 0.0
26/11:40pm 17.8 18.7 14.0 78 2.2 NW 2 2 1 1 - - 0.0
26/11:30pm 18.2 19.2 14.2 77 2.3 NW 2 4 1 2 - - 0.0
26/11:20pm 18.2 18.8 14.2 77 2.3 NNW 4 4 2 2 - - 0.0
26/11:10pm 18.1 19.0 14.1 77 2.3 NNW 2 4 1 2 - - 0.0
26/11:00pm 18.2 19.2 14.2 77 2.3 N 2 2 1 1 - - 0.0
26/10:50pm 17.9 19.2 14.2 79 2.1 CALM 0 2 0 1 - - 0.0
26/10:40pm 17.8 19.1 14.2 79 2.1 CALM 0 2 0 1 - - 0.0
26/10:30pm 18.1 19.5 14.3 78 2.2 CALM 0 0 0 0 - - 0.0
26/10:20pm 18.0 19.1 13.5 75 2.6 CALM 0 0 0 0 - - 0.0
26/10:10pm 18.7 19.6 14.0 74 2.7 W 2 6 1 3 - - 0.0
26/10:00pm 18.7 19.3 14.2 75 2.6 WNW 4 6 2 3 - - 0.0
26/09:50pm 18.2 18.6 13.6 74 2.6 NNW 4 6 2 3 - - 0.0
26/09:40pm 18.2 18.6 13.8 75 2.5 NNW 4 6 2 3 - - 0.0
26/09:30pm 18.5 18.9 13.7 73 2.7 N 4 4 2 2 - - 0.0
26/09:20pm 18.6 19.0 13.6 72 2.9 N 4 6 2 3 - - 0.0
26/09:10pm 19.3 19.7 13.8 70 3.2 N 4 6 2 3 - - 0.0
26/09:00pm 19.6 20.1 13.9 69 3.3 NW 4 6 2 3 - - 0.0
26/08:50pm 19.6 20.1 13.9 69 3.3 NW 4 6 2 3 - - 0.0
26/08:40pm 19.5 20.0 13.9 70 3.2 NW 4 4 2 2 - - 0.0
26/08:30pm 19.4 19.5 13.9 70 3.2 NW 6 7 3 4 - - 0.0
26/08:20pm 19.8 20.3 13.9 69 3.4 NW 4 6 2 3 - - 0.0
26/08:10pm 19.8 19.9 14.0 69 3.4 NW 6 7 3 4 - - 0.0
26/08:00pm 20.9 21.2 14.4 66 3.8 NW 6 6 3 3 - - 0.0
26/07:50pm 21.3 21.6 14.5 65 4.0 WNW 6 7 3 4 - - 0.0
26/07:40pm 21.3 21.6 14.4 64 4.1 W 6 6 3 3 - - 0.0
26/07:30pm 21.4 21.6 14.3 64 4.2 W 6 7 3 4 - - 0.0
26/07:20pm 21.6 21.6 14.3 63 4.3 W 7 7 4 4 - - 0.0
26/07:10pm 22.0 21.7 14.3 61 4.5 W 9 11 5 6 - - 0.0
26/07:00pm 22.3 21.9 14.1 59 4.8 W 9 13 5 7 - - 0.0
26/06:50pm 22.5 21.7 14.0 58 5.0 WSW 11 15 6 8 - - 0.0
26/06:40pm 22.7 21.1 14.0 58 5.1 WSW 15 15 8 8 - - 0.0
26/06:30pm 22.7 21.9 13.9 57 5.2 SW 11 11 6 6 - - 0.0
26/06:20pm 22.9 22.4 13.9 57 5.3 SW 9 11 5 6 - - 0.0
26/06:10pm 23.3 22.5 13.9 55 5.5 WSW 11 13 6 7 - - 0.0
26/06:00pm 23.6 22.3 13.8 54 5.8 SW 13 15 7 8 - - 0.0
26/05:50pm 23.9 22.6 13.8 53 5.9 WSW 13 15 7 8 - - 0.0
26/05:40pm 24.3 23.0 13.7 51 6.2 WSW 13 17 7 9 - - 0.0
26/05:30pm 24.7 23.1 13.9 51 6.4 WSW 15 17 8 9 - - 0.0
26/05:20pm 25.3 24.0 13.7 48 6.8 WSW 13 17 7 9 - - 0.0
26/05:10pm 25.7 24.0 13.5 46 7.2 WSW 15 19 8 10 - - 0.0
26/05:00pm 26.3 24.2 13.6 45 7.5 WSW 17 19 9 10 - - 0.0
26/04:50pm 26.8 24.7 13.7 44 7.8 SW 17 17 9 9 - - 0.0
26/04:40pm 27.1 25.6 13.1 42 8.2 SW 13 17 7 9 - - 0.0
26/04:30pm 26.9 25.4 13.2 42 8.1 SW 13 15 7 8 - - 0.0
26/04:20pm 26.7 24.4 13.1 43 8.0 SW 17 19 9 10 - - 0.0
26/04:10pm 27.5 25.2 12.9 40 8.6 SSW 17 17 9 9 - - 0.0
26/04:00pm 28.1 26.4 12.6 38 9.1 SW 13 17 7 9 - - 0.0
26/03:50pm 27.8 26.6 12.7 39 8.9 SSW 11 15 6 8 - - 0.0
26/03:40pm 28.3 26.5 12.2 37 9.4 S 13 17 7 9 - - 0.0
26/03:30pm 28.4 26.7 12.4 37 9.4 S 13 15 7 8 - - 0.0
26/03:20pm 28.2 26.9 12.5 37 9.2 S 11 15 6 8 - - 0.0
26/03:10pm 27.5 25.8 12.3 39 8.9 S 13 17 7 9 - - 0.0
26/03:00pm 27.4 26.8 12.3 39 8.8 SSE 7 11 4 6 - - 0.0
26/02:50pm 27.5 25.8 12.4 39 8.8 S 13 17 7 9 - - 0.0
26/02:40pm 28.4 26.2 12.2 36 9.5 SSW 15 17 8 9 - - 0.0
26/02:30pm 28.7 27.0 12.3 36 9.6 SSE 13 19 7 10 - - 0.0
26/02:20pm 28.3 27.0 12.6 38 9.2 SSE 11 15 6 8 - - 0.0
26/02:10pm 28.6 27.5 12.0 35 9.7 SW 9 20 5 11 - - 0.0
26/02:00pm 28.4 27.3 12.1 36 9.5 SSW 9 15 5 8 - - 0.0
26/01:50pm 28.0 26.8 11.7 36 9.4 SSW 9 17 5 9 - - 0.0
26/01:40pm 27.6 26.1 12.0 38 9.0 SW 11 15 6 8 - - 0.0
26/01:30pm 27.6 26.0 11.7 37 9.2 SSW 11 17 6 9 - - 0.0
26/01:20pm 27.2 26.5 11.5 37 9.0 SSW 6 9 3 5 - - 0.0
26/01:10pm 27.0 26.0 12.2 39 8.6 SSW 9 15 5 8 - - 0.0
26/01:00pm 27.7 27.4 12.6 39 8.8 E 6 9 3 5 - - 0.0
26/12:50pm 27.4 26.9 12.7 40 8.6 ENE 7 9 4 5 - - 0.0
26/12:40pm 27.3 27.0 12.6 40 8.6 SE 6 11 3 6 - - 0.0
26/12:30pm 26.7 25.8 12.5 41 8.3 SE 9 13 5 7 - - 0.0
26/12:20pm 27.2 26.9 12.6 40 8.5 W 6 13 3 7 - - 0.0
26/12:10pm 26.8 26.4 12.4 40 8.4 WSW 6 7 3 4 - - 0.0
26/12:00pm 26.3 25.3 12.2 41 8.2 W 9 15 5 8 - - 0.0
26/11:50am 26.0 25.4 12.3 42 7.9 SSE 7 11 4 6 - - 0.0
26/11:40am 25.7 24.3 12.2 43 7.8 W 11 15 6 8 - - 0.0
26/11:30am 25.4 24.5 12.6 45 7.4 WSW 9 13 5 7 - - 0.0
26/11:20am 25.6 24.6 12.3 43 7.7 NW 9 15 5 8 - - 0.0
26/11:10am 24.9 24.3 12.4 45 7.2 NNW 7 11 4 6 - - 0.0
26/11:00am 24.5 23.9 12.4 46 7.0 W 7 13 4 7 - - 0.0
26/10:50am 24.0 23.0 12.4 48 6.7 WNW 9 13 5 7 - - 0.0
26/10:40am 24.0 23.6 12.4 48 6.7 NW 6 11 3 6 - - 0.0
26/10:30am 23.6 22.9 12.1 48 6.6 W 7 11 4 6 - - 0.0
26/10:20am 23.4 22.8 11.8 48 6.6 W 6 9 3 5 - - 0.0
26/10:10am 22.9 22.4 11.9 50 6.2 NNE 6 11 3 6 - - 0.0
26/10:00am 22.3 21.8 12.0 52 5.8 WNW 6 9 3 5 - - 0.0
26/09:50am 21.9 20.7 11.7 52 5.7 NNW 9 13 5 7 - - 0.0
26/09:40am 21.4 20.6 11.8 54 5.4 NW 7 11 4 6 - - 0.0
26/09:30am 20.7 20.0 11.9 57 4.9 NW 7 9 4 5 - - 0.0
26/09:20am 20.1 19.0 11.9 59 4.6 W 9 11 5 6 - - 0.0
26/09:10am 19.7 18.9 11.8 60 4.4 W 7 11 4 6 - - 0.0
26/09:00am 19.2 18.6 11.7 62 4.2 WNW 6 11 3 6 - - 0.0
26/08:50am 18.1 17.3 11.7 66 3.5 WNW 7 7 4 4 - - 0.0
26/08:40am 17.0 16.4 11.7 71 2.9 NW 6 7 3 4 - - 0.0
26/08:30am 15.8 16.0 11.7 76 2.2 NW 2 4 1 2 - - 0.0
26/08:20am 14.5 15.1 11.9 84 1.4 CALM 0 2 0 1 - - 0.0
26/08:10am 13.5 13.6 11.4 87 1.1 ENE 2 2 1 1 - - 0.0
26/08:00am 12.5 12.3 10.5 88 1.0 E 2 4 1 2 - - 0.0
26/07:50am 11.6 11.6 9.7 88 1.0 CALM 0 0 0 0 - - 0.0
26/07:40am 11.0 10.8 9.2 89 0.9 CALM 0 0 0 0 - - 0.0
26/07:30am 10.3 10.0 8.5 89 0.9 CALM 0 0 0 0 - - 0.0
26/07:20am 8.9 8.2 7.1 88 0.8 CALM 0 0 0 0 - - 0.0
26/07:10am 8.2 6.9 6.2 87 0.9 NNE 2 4 1 2 - - 0.0
26/07:00am 8.3 7.1 6.4 88 0.9 ENE 2 4 1 2 - - 0.0
26/06:50am 9.1 8.5 7.4 89 0.8 CALM 0 0 0 0 - - 0.0
26/06:40am 8.7 8.0 6.9 88 0.8 CALM 0 0 0 0 - - 0.0
26/06:30am 8.5 7.7 6.7 88 0.8 CALM 0 0 0 0 - - 0.0
26/06:20am 8.7 8.0 6.9 88 0.8 CALM 0 4 0 2 - - 0.0
26/06:10am 8.8 7.7 7.0 88 0.8 S 2 4 1 2 - - 0.0
26/06:00am 8.9 7.8 7.0 88 0.9 S 2 4 1 2 - - 0.0
26/05:50am 9.9 9.5 8.1 88 0.9 CALM 0 2 0 1 - - 0.0
26/05:40am 9.9 9.1 8.1 88 0.9 NW 2 4 1 2 - - 0.0
26/05:30am 9.5 8.6 7.7 88 0.9 NW 2 4 1 2 - - 0.0
26/05:20am 9.2 7.8 7.3 88 0.9 NW 4 4 2 2 - - 0.0
26/05:10am 9.3 7.9 7.4 88 0.9 NW 4 6 2 3 - - 0.0
26/04:50am 9.3 7.9 7.4 88 0.9 NW 4 6 2 3 - - 0.0
26/04:40am 9.6 8.6 7.5 87 1.0 NNW 2 4 1 2 - - 0.0
26/04:30am 10.0 9.6 8.1 88 0.9 CALM 0 0 0 0 - - 0.0
26/04:20am 9.9 9.4 7.9 87 1.0 CALM 0 0 0 0 - - 0.0
26/04:10am 10.0 9.2 8.0 87 1.0 SSW 2 4 1 2 - - 0.0
26/04:00am 10.1 8.9 8.1 87 1.0 SW 4 4 2 2 - - 0.0
26/03:50am 10.2 8.6 8.2 87 1.0 SW 6 6 3 3 - - 0.0
26/03:40am 9.9 8.3 7.8 87 1.0 SW 6 6 3 3 - - 0.0
26/03:30am 10.0 8.4 7.9 87 1.0 SW 6 7 3 4 - - 0.0
26/03:20am 10.4 9.2 8.1 86 1.1 WSW 4 6 2 3 - - 0.0
26/03:10am 11.0 10.0 9.0 87 1.0 NW 4 4 2 2 - - 0.0
26/03:00am 10.7 9.2 8.6 87 1.0 NW 6 6 3 3 - - 0.0
26/02:50am 10.5 8.9 8.2 86 1.1 NW 6 6 3 3 - - 0.0
26/02:40am 10.9 10.6 8.5 85 1.2 CALM 0 4 0 2 - - 0.0
26/02:30am 11.1 10.8 8.7 85 1.2 CALM 0 0 0 0 - - 0.0
26/02:20am 11.5 10.9 8.8 83 1.3 W 2 4 1 2 - - 0.0
26/02:10am 11.8 10.9 9.3 85 1.3 SW 4 4 2 2 - - 0.0
26/02:00am 11.6 10.7 9.1 85 1.3 SW 4 6 2 3 - - 0.0
26/01:50am 11.8 10.8 9.0 83 1.4 SSW 4 4 2 2 - - 0.0
26/01:40am 12.0 11.1 9.1 82 1.5 SW 4 4 2 2 - - 0.0
26/01:30am 12.2 11.6 9.1 81 1.6 SW 2 4 1 2 - - 0.0
26/01:20am 12.7 12.2 9.2 79 1.8 SSW 2 4 1 2 - - 0.0
26/01:10am 14.0 14.1 10.2 78 2.0 CALM 0 2 0 1 - - 0.0
26/01:00am 14.3 14.1 10.4 77 2.0 NW 2 4 1 2 - - 0.0
26/12:50am 13.9 13.7 10.3 79 1.9 NW 2 4 1 2 - - 0.0
26/12:40am 13.2 12.9 10.2 82 1.6 NNW 2 2 1 1 - - 0.0
26/12:30am 12.6 12.2 9.7 82 1.5 N 2 2 1 1 - - 0.0
26/12:20am 13.2 12.8 9.9 80 1.7 NE 2 2 1 1 - - 0.0
26/12:10am 13.5 13.6 10.2 80 1.7 CALM 0 2 0 1 - - 0.0
26/12:00am 13.4 13.5 10.0 80 1.8 CALM 0 2 0 1 - - 0.0
 
Date/Time
EST
Temp
°C
App
Temp
°C
Dew
Point
°C
Rel
Hum
%
Delta-T
°C
Wind Press
QNH
hPa
Press
MSL
hPa
Rain since
9am
mm
Dir  Spd
km/h
Gust
km/h
Spd
kts
Gust
kts
25/11:50pm 13.2 12.5 10.2 82 1.6 NE 4 4 2 2 - - 0.0
25/11:40pm 13.2 12.4 9.7 79 1.8 NNE 4 6 2 3 - - 0.0
25/11:30pm 14.3 13.7 10.3 77 2.1 ENE 4 6 2 3 - - 0.0
25/11:20pm 15.3 14.8 10.6 73 2.5 NNW 4 4 2 2 - - 0.0
25/11:10pm 15.5 15.0 10.7 73 2.6 NNW 4 4 2 2 - - 0.0
25/11:00pm 15.7 15.2 10.7 72 2.7 N 4 4 2 2 - - 0.0
25/10:50pm 15.3 14.8 10.7 74 2.4 NNE 4 4 2 2 - - 0.0
25/10:40pm 15.2 14.6 10.4 73 2.5 NNE 4 6 2 3 - - 0.0
25/10:30pm 16.6 16.1 10.8 68 3.1 NNW 4 6 2 3 - - 0.0
25/10:20pm 16.9 16.0 10.8 67 3.3 NW 6 7 3 4 - - 0.0
25/10:10pm 17.0 15.9 10.8 67 3.3 NW 7 7 4 4 - - 0.0
25/10:00pm 17.2 16.1 10.8 66 3.4 NW 7 7 4 4 - - 0.0
25/09:50pm 17.7 16.6 10.6 63 3.8 NW 7 7 4 4 - - 0.0
25/09:40pm 17.3 16.2 10.6 64 3.6 WNW 7 7 4 4 - - 0.0
25/09:30pm 17.3 16.2 10.6 64 3.6 NW 7 7 4 4 - - 0.0
25/09:20pm 17.8 16.9 10.5 62 3.9 NW 6 6 3 3 - - 0.0
25/09:10pm 17.8 16.9 10.5 62 3.9 NNW 6 6 3 3 - - 0.0
25/09:00pm 17.3 16.4 10.5 64 3.6 N 6 6 3 3 - - 0.0
25/08:50pm 17.8 17.4 11.1 65 3.6 NE 4 4 2 2 - - 0.0
25/08:40pm 18.4 18.4 11.2 63 3.9 NNE 2 4 1 2 - - 0.0
25/08:30pm 18.6 18.2 11.2 62 4.0 N 4 4 2 2 - - 0.0
25/08:20pm 19.2 18.9 11.4 60 4.3 NNW 4 6 2 3 - - 0.0
25/08:10pm 19.4 19.1 11.4 60 4.4 NW 4 6 2 3 - - 0.0
25/08:00pm 19.6 18.9 11.4 59 4.5 WNW 6 7 3 4 - - 0.0
25/07:50pm 19.7 18.8 11.4 58 4.6 W 7 9 4 5 - - 0.0
25/07:40pm 19.7 18.4 11.4 58 4.6 W 9 11 5 6 - - 0.0
25/07:30pm 19.7 18.4 11.2 58 4.7 WSW 9 11 5 6 - - 0.0
25/07:20pm 19.8 18.5 11.1 57 4.8 W 9 11 5 6 - - 0.0
25/07:10pm 20.0 18.2 10.9 55 5.0 W 11 13 6 7 - - 0.0
25/07:00pm 20.1 17.9 10.7 54 5.1 W 13 15 7 8 - - 0.0
25/06:50pm 19.8 18.2 10.1 53 5.2 W 9 11 5 6 - - 0.0
25/06:40pm 19.9 18.3 10.1 53 5.3 W 9 9 5 5 - - 0.0
25/06:30pm 20.3 18.6 10.0 51 5.6 WSW 9 9 5 5 - - 0.0
25/06:20pm 20.5 18.9 10.1 51 5.6 WSW 9 13 5 7 - - 0.0
25/06:10pm 20.7 19.4 10.0 50 5.8 WSW 7 9 4 5 - - 0.0
25/06:00pm 21.2 19.5 9.9 48 6.1 WSW 9 11 5 6 - - 0.0
25/05:50pm 21.6 19.8 9.4 45 6.6 WSW 9 11 5 6 - - 0.0
25/05:40pm 22.0 20.4 8.8 43 7.0 W 7 9 4 5 - - 0.0
25/05:30pm 22.7 21.1 8.9 41 7.4 W 7 9 4 5 - - 0.0
25/05:20pm 23.3 21.3 8.8 39 7.8 W 9 11 5 6 - - 0.0
25/05:10pm 23.7 21.4 8.9 39 8.0 WSW 11 13 6 7 - - 0.0
25/05:00pm 24.1 21.4 8.9 38 8.2 W 13 15 7 8 - - 0.0
25/04:50pm 24.1 21.8 9.0 38 8.2 W 11 13 6 7 - - 0.0
25/04:40pm 24.4 21.7 9.0 37 8.4 W 13 15 7 8 - - 0.0
25/04:30pm 25.3 23.3 8.8 35 9.0 W 9 11 5 6 - - 0.0
25/04:20pm 26.5 24.0 8.4 31 9.8 W 11 13 6 7 - - 0.0
25/04:10pm 26.6 23.3 8.0 30 10.0 WNW 15 22 8 12 - - 0.0
25/04:00pm 26.8 24.3 8.3 31 10.0 W 11 13 6 7 - - 0.0
25/03:50pm 26.2 24.0 7.8 31 9.9 W 9 13 5 7 - - 0.0
25/03:40pm 25.6 23.7 8.9 34 9.1 WNW 9 11 5 6 - - 0.0
25/03:30pm 26.5 23.7 8.5 32 9.8 WNW 13 15 7 8 - - 0.0
25/03:20pm 27.1 24.2 8.3 30 10.2 W 13 15 7 8 - - 0.0
25/03:10pm 27.2 24.7 8.3 30 10.3 WSW 11 15 6 8 - - 0.0
25/03:00pm 26.7 25.1 8.7 32 9.8 WSW 7 9 4 5 - - 0.0
25/02:50pm 26.1 24.4 8.2 32 9.7 W 7 9 4 5 - - 0.0
25/02:40pm 25.3 23.6 8.3 34 9.2 W 7 9 4 5 - - 0.0
25/02:30pm 25.3 23.3 8.8 35 9.0 WNW 9 11 5 6 - - 0.0
25/02:20pm 25.5 23.1 8.6 34 9.2 WNW 11 15 6 8 - - 0.0
25/02:10pm 26.0 23.6 8.5 33 9.5 W 11 13 6 7 - - 0.0
25/02:00pm 26.8 24.8 8.7 32 9.9 WSW 9 15 5 8 - - 0.0
25/01:50pm 26.9 25.3 8.2 30 10.1 W 6 13 3 7 - - 0.0
25/01:40pm 26.1 24.4 8.2 32 9.7 WSW 7 11 4 6 - - 0.0
25/01:30pm 25.5 23.4 8.4 33 9.2 WSW 9 11 5 6 - - 0.0
25/01:20pm 25.2 23.4 8.0 33 9.2 WSW 7 11 4 6 - - 0.0
25/01:10pm 25.2 23.2 8.5 34 9.0 W 9 13 5 7 - - 0.0
25/01:00pm 25.2 23.6 8.7 35 8.9 WNW 7 9 4 5 - - 0.0
25/12:50pm 25.2 23.2 8.8 35 8.9 W 9 13 5 7 - - 0.0
25/12:40pm 25.4 23.8 8.8 35 9.0 W 7 9 4 5 - - 0.0
25/12:30pm 25.2 22.8 8.6 34 9.0 W 11 15 6 8 - - 0.0
25/12:20pm 25.5 23.8 8.4 33 9.2 SSW 7 13 4 7 - - 0.0
25/12:10pm 25.1 22.7 8.8 35 8.8 WSW 11 17 6 9 - - 0.0
25/12:00pm 25.0 23.0 8.8 35 8.8 W 9 13 5 7 - - 0.0
25/11:50am 25.0 23.2 9.3 37 8.6 NNW 9 11 5 6 - - 0.0
25/11:40am 25.3 23.4 9.1 35 8.8 NNW 9 13 5 7 - - 0.0
25/11:30am 24.9 22.7 9.5 37 8.5 NNW 11 15 6 8 - - 0.0
25/11:20am 24.9 23.2 9.8 38 8.3 NW 9 15 5 8 - - 0.0
25/11:10am 25.1 22.2 9.8 38 8.4 WNW 15 19 8 10 - - 0.0
25/11:00am 25.0 23.0 10.0 38 8.3 WNW 11 15 6 8 - - 0.0
25/10:50am 24.4 22.0 10.1 40 7.9 WNW 13 17 7 9 - - 0.0
25/10:40am 24.2 21.4 9.9 40 7.9 NW 15 17 8 9 - - 0.0
25/10:30am 24.1 21.7 10.2 41 7.7 W 13 15 7 8 - - 0.0
25/10:20am 24.0 22.0 10.0 41 7.7 WNW 11 13 6 7 - - 0.0
25/10:10am 23.6 21.1 9.7 41 7.6 WNW 13 17 7 9 - - 0.0
25/10:00am 23.2 21.1 9.9 43 7.3 NW 11 15 6 8 - - 0.0
25/09:50am 22.8 20.5 10.6 46 6.8 NW 13 17 7 9 - - 0.0
25/09:40am 22.5 20.3 10.8 47 6.5 NNW 13 15 7 8 - - 0.0
25/09:30am 22.2 20.4 10.8 48 6.3 NW 11 15 6 8 - - 0.0
25/09:20am 21.8 20.4 11.0 50 6.0 NW 9 11 5 6 - - 0.0
25/09:10am 21.4 20.6 11.6 53 5.5 NNW 7 11 4 6 - - 0.0
25/09:00am 21.1 20.5 11.6 54 5.3 NW 6 9 3 5 - - 0.0
25/08:50am 20.4 19.6 11.7 57 4.8 NW 7 9 4 5 - - 0.0
25/08:40am 19.7 18.5 11.7 60 4.4 NNW 9 11 5 6 - - 0.0
25/08:30am 19.1 17.6 11.8 62 4.0 NNW 11 13 6 7 - - 0.0
25/08:20am 18.6 17.5 11.9 65 3.7 N 9 11 5 6 - - 0.0
25/08:10am 17.8 16.7 11.8 68 3.3 N 9 11 5 6 - - 0.0
25/08:00am 16.9 16.3 11.8 72 2.8 N 6 7 3 4 - - 0.0
25/07:50am 16.2 16.8 11.8 75 2.4 CALM 0 2 0 1 - - 0.0
25/07:40am 15.5 16.0 11.5 77 2.2 CALM 0 4 0 2 - - 0.0
25/07:30am 15.2 15.3 11.4 78 2.0 NE 2 4 1 2 - - 0.0
25/07:20am 14.8 15.2 11.3 79 1.9 CALM 0 2 0 1 - - 0.0
25/07:10am 14.3 14.6 10.9 80 1.8 CALM 0 4 0 2 - - 0.0
25/07:00am 14.2 14.5 10.8 80 1.8 CALM 0 2 0 1 - - 0.0
25/06:50am 14.2 14.2 11.0 81 1.7 ENE 2 4 1 2 - - 0.0
25/06:40am 14.5 14.1 11.0 79 1.9 SE 4 4 2 2 - - 0.0
25/06:30am 14.9 14.9 11.2 78 2.0 ESE 2 4 1 2 - - 0.0
25/06:20am 15.4 15.5 11.4 77 2.2 N 2 4 1 2 - - 0.0
25/06:10am 15.5 14.6 11.4 76 2.2 NNW 7 9 4 5 - - 0.0
25/06:00am 15.1 13.8 11.4 78 2.0 NNW 9 9 5 5 - - 0.0
25/05:50am 14.3 13.6 11.3 82 1.6 NNW 6 7 3 4 - - 0.0
25/05:40am 13.7 12.7 11.0 84 1.4 NNW 7 7 4 4 - - 0.0
25/05:30am 13.7 13.2 10.9 83 1.5 NW 4 6 2 3 - - 0.0
25/05:20am 13.8 13.3 10.9 83 1.5 NW 4 6 2 3 - - 0.0
25/05:10am 13.7 13.2 10.9 83 1.5 WNW 4 4 2 2 - - 0.0
25/05:00am 13.6 13.1 10.6 82 1.6 W 4 4 2 2 - - 0.0
25/04:50am 13.5 13.3 10.6 82 1.5 W 2 6 1 3 - - 0.0
25/04:40am 13.3 12.7 10.5 83 1.5 W 4 6 2 3 - - 0.0
25/04:30am 13.1 12.5 10.3 83 1.5 N 4 7 2 4 - - 0.0
25/04:20am 13.0 12.7 10.2 83 1.5 N 2 6 1 3 - - 0.0
25/04:10am 12.8 12.5 10.0 83 1.4 WSW 2 4 1 2 - - 0.0
25/04:00am 12.7 11.9 9.7 82 1.5 SW 4 6 2 3 - - 0.0
25/03:50am 12.8 12.4 9.9 82 1.5 SSE 2 4 1 2 - - 0.0
25/03:40am 12.8 12.4 9.9 82 1.5 SSE 2 4 1 2 - - 0.0
25/03:30am 13.0 12.7 10.2 83 1.5 SE 2 4 1 2 - - 0.0
25/03:20am 12.9 12.6 10.2 84 1.4 ESE 2 4 1 2 - - 0.0
25/03:10am 12.7 11.9 9.7 82 1.5 E 4 4 2 2 - - 0.0
25/03:00am 13.0 12.2 9.8 81 1.6 E 4 6 2 3 - - 0.0
25/02:50am 13.2 12.5 10.0 81 1.7 ESE 4 4 2 2 - - 0.0
25/02:40am 13.5 13.6 10.1 80 1.8 CALM 0 4 0 2 - - 0.0
25/02:30am 13.7 13.8 10.3 80 1.8 CALM 0 0 0 0 - - 0.0
25/02:20am 13.9 14.1 10.7 81 1.7 CALM 0 0 0 0 - - 0.0
25/02:10am 13.9 13.7 10.6 80 1.7 S 2 4 1 2 - - 0.0
25/02:00am 14.0 14.3 11.0 82 1.6 CALM 0 0 0 0 - - 0.0
25/01:50am 13.8 14.1 10.9 83 1.5 CALM 0 0 0 0 - - 0.0
25/01:40am 13.6 13.9 10.8 83 1.5 CALM 0 0 0 0 - - 0.0
25/01:30am 13.4 13.3 10.9 85 1.3 W 2 2 1 1 - - 0.0
25/01:20am 12.7 12.7 9.9 83 1.4 CALM 0 2 0 1 - - 0.0
25/01:10am 12.7 12.4 10.0 83 1.4 N 2 2 1 1 - - 0.0
25/01:00am 12.7 12.5 10.3 85 1.2 W 2 4 1 2 - - 0.0
25/12:50am 11.9 11.4 9.2 83 1.4 WSW 2 4 1 2 - - 0.0
25/12:40am 12.0 11.4 9.1 82 1.5 N 2 4 1 2 - - 0.0
25/12:30am 12.6 12.7 10.0 84 1.3 CALM 0 4 0 2 - - 0.0
25/12:20am 12.7 11.9 9.8 82 1.5 SW 4 4 2 2 - - 0.0
25/12:10am 12.8 12.4 9.9 82 1.5 SW 2 4 1 2 - - 0.0
25/12:00am 12.7 12.2 9.2 79 1.8 SSW 2 2 1 1 - - 0.0
 
Date/Time
EST
Temp
°C
App
Temp
°C
Dew
Point
°C
Rel
Hum
%
Delta-T
°C
Wind Press
QNH
hPa
Press
MSL
hPa
Rain since
9am
mm
Dir  Spd
km/h
Gust
km/h
Spd
kts
Gust
kts
24/11:50pm 13.2 12.4 9.7 79 1.8 W 4 4 2 2 - - 0.0
24/11:40pm 13.7 12.7 10.2 79 1.8 NW 6 6 3 3 - - 0.0
24/11:30pm 13.5 12.9 10.3 81 1.7 NW 4 6 2 3 - - 0.0
24/11:20pm 13.5 12.8 10.0 79 1.8 NNW 4 4 2 2 - - 0.0
24/11:10pm 13.0 11.8 9.7 80 1.7 NW 6 6 3 3 - - 0.0
24/11:00pm 12.9 11.7 9.7 81 1.6 NNW 6 6 3 3 - - 0.0
24/10:50pm 13.4 12.2 9.4 77 2.0 NNW 6 6 3 3 - - 0.0
24/10:40pm 14.2 13.5 10.2 77 2.1 NNW 4 6 2 3 - - 0.0
24/10:30pm 14.5 13.9 10.4 76 2.2 NW 4 6 2 3 - - 0.0
24/10:20pm 14.8 14.3 10.6 76 2.2 NNW 4 6 2 3 - - 0.0
24/10:10pm 15.2 15.4 10.4 73 2.5 CALM 0 2 0 1 - - 0.0
24/10:00pm 15.5 14.5 10.4 71 2.7 WNW 6 7 3 4 - - 0.0
24/09:50pm 16.3 15.3 11.1 71 2.8 WSW 7 7 4 4 - - 0.0
24/09:40pm 15.7 14.6 10.8 72 2.6 WSW 7 7 4 4 - - 0.0
24/09:30pm 15.0 15.1 10.3 73 2.5 CALM 0 4 0 2 - - 0.0
24/09:20pm 15.0 15.2 10.4 74 2.4 CALM 0 0 0 0 - - 0.0
24/09:10pm 15.0 14.7 10.2 73 2.5 N 2 4 1 2 - - 0.0
24/09:00pm 15.5 14.7 9.8 69 3.0 N 4 4 2 2 - - 0.0
24/08:50pm 16.1 15.4 10.2 68 3.1 NNW 4 6 2 3 - - 0.0
24/08:40pm 16.1 15.1 10.4 69 3.0 NNW 6 6 3 3 - - 0.0
24/08:30pm 17.5 16.6 10.8 65 3.6 WNW 6 6 3 3 - - 0.0
24/08:20pm 18.2 17.3 10.7 61 4.1 WNW 6 6 3 3 - - 0.0
24/08:10pm 18.3 17.3 10.3 59 4.3 W 6 6 3 3 - - 0.0
24/08:00pm 18.4 17.3 10.1 58 4.4 W 6 6 3 3 - - 0.0
24/07:50pm 18.3 17.2 9.9 58 4.5 W 6 6 3 3 - - 0.0
24/07:40pm 18.2 17.0 9.7 57 4.5 W 6 7 3 4 - - 0.0
24/07:30pm 18.0 16.6 9.6 58 4.4 WSW 7 7 4 4 - - 0.0
24/07:20pm 18.1 16.9 9.5 57 4.5 WSW 6 7 3 4 - - 0.0
24/07:10pm 18.3 16.9 9.5 56 4.7 WSW 7 7 4 4 - - 0.0
24/07:00pm 18.6 17.2 9.6 55 4.8 WSW 7 7 4 4 - - 0.0
24/06:50pm 18.8 17.4 9.6 55 4.9 WSW 7 9 4 5 - - 0.0
24/06:40pm 19.2 17.4 9.6 53 5.1 WSW 9 9 5 5 - - 0.0
24/06:30pm 19.5 18.1 9.6 52 5.3 WSW 7 9 4 5 - - 0.0
24/06:20pm 19.8 18.4 9.4 51 5.5 WSW 7 9 4 5 - - 0.0
24/06:10pm 20.2 18.7 9.3 49 5.8 WSW 7 7 4 4 - - 0.0
24/06:00pm 21.2 19.8 9.4 47 6.3 WSW 7 9 4 5 - - 0.0
24/05:50pm 21.9 20.1 9.3 44 6.8 WSW 9 13 5 7 - - 0.0
24/05:40pm 22.4 20.1 9.0 42 7.2 W 11 13 6 7 - - 0.0
24/05:30pm 23.0 21.0 8.5 39 7.7 W 9 11 5 6 - - 0.0
24/05:20pm 23.9 21.4 8.2 36 8.4 WSW 11 13 6 7 - - 0.0
24/05:10pm 24.5 22.0 8.2 35 8.7 WSW 11 13 6 7 - - 0.0
24/05:00pm 25.0 22.0 7.9 33 9.1 W 13 17 7 9 - - 0.0
24/04:50pm 25.4 22.7 7.3 31 9.6 W 11 13 6 7 - - 0.0
24/04:40pm 25.6 22.4 7.0 30 9.8 W 13 15 7 8 - - 0.0
24/04:30pm 25.9 22.9 7.5 31 9.8 W 13 15 7 8 - - 0.0
24/04:20pm 26.0 23.0 7.8 31 9.8 WNW 13 15 7 8 - - 0.0
24/04:10pm 26.0 22.9 7.1 30 10.0 WNW 13 17 7 9 - - 0.0
24/04:00pm 26.1 22.8 8.1 32 9.7 WNW 15 20 8 11 - - 0.0
24/03:50pm 25.9 24.1 8.1 32 9.6 WNW 7 9 4 5 - - 0.0
24/03:40pm 26.1 23.7 8.6 33 9.5 W 11 17 6 9 - - 0.0
24/03:30pm 26.5 24.0 8.3 31 9.9 W 11 17 6 9 - - 0.0
24/03:20pm 26.4 24.8 8.8 33 9.6 W 7 11 4 6 - - 0.0
24/03:10pm 25.6 24.1 9.0 35 9.1 W 7 11 4 6 - - 0.0
24/03:00pm 25.7 23.3 8.5 33 9.3 W 11 17 6 9 - - 0.0
24/02:50pm 25.7 23.1 9.2 35 9.0 W 13 15 7 8 - - 0.0
24/02:40pm 24.9 22.4 9.6 38 8.4 WNW 13 15 7 8 - - 0.0
24/02:30pm 25.3 22.7 9.4 36 8.7 WNW 13 19 7 10 - - 0.0
24/02:20pm 26.0 24.2 9.6 35 9.1 SW 9 9 5 5 - - 0.0
24/02:10pm 25.4 23.4 10.0 37 8.5 WSW 11 17 6 9 - - 0.0
24/02:00pm 25.9 23.6 10.4 37 8.7 WSW 13 17 7 9 - - 0.0
24/01:50pm 25.6 23.7 10.5 38 8.5 W 11 15 6 8 - - 0.0
24/01:40pm 25.4 23.4 10.3 38 8.4 W 11 15 6 8 - - 0.0
24/01:30pm 25.4 23.9 10.6 39 8.3 W 9 13 5 7 - - 0.0
24/01:20pm 25.3 23.3 10.3 38 8.4 W 11 15 6 8 - - 0.0
24/01:10pm 24.7 22.0 10.5 40 7.9 NW 15 19 8 10 - - 0.0
24/01:00pm 24.6 22.7 10.4 40 7.9 W 11 15 6 8 - - 0.0
24/12:50pm 25.0 23.0 10.3 39 8.2 W 11 17 6 9 - - 0.0
24/12:40pm 24.8 23.5 10.0 39 8.2 WNW 7 13 4 7 - - 0.0
24/12:30pm 24.6 23.0 10.1 40 8.0 W 9 19 5 10 - - 0.0
24/12:20pm 24.0 21.6 10.2 41 7.6 W 13 19 7 10 - - 0.0
24/12:10pm 24.1 21.5 10.6 42 7.5 WNW 15 20 8 11 - - 0.0
24/12:00pm 23.8 21.2 10.7 43 7.3 WNW 15 22 8 12 - - 0.0
24/11:50am 23.8 20.8 10.5 43 7.4 WNW 17 20 9 11 - - 0.0
24/11:40am 24.1 21.8 10.5 42 7.6 WNW 13 17 7 9 - - 0.0
24/11:30am 23.7 21.3 9.9 41 7.6 WNW 13 17 7 9 - - 0.0
24/11:20am 23.4 20.8 9.4 41 7.6 NNW 13 15 7 8 - - 0.0
24/11:10am 23.2 21.0 9.5 41 7.5 NW 11 17 6 9 - - 0.0
24/11:00am 22.9 20.3 9.5 42 7.3 NNW 13 17 7 9 - - 0.0
24/10:50am 22.5 20.4 9.6 44 7.0 NNW 11 15 6 8 - - 0.0
24/10:40am 22.3 19.8 9.8 45 6.8 NNW 13 17 7 9 - - 0.0
24/10:30am 21.7 20.3 9.6 46 6.5 NNW 7 15 4 8 - - 0.0
24/10:20am 21.1 20.0 9.8 48 6.1 NNW 6 9 3 5 - - 0.0
24/10:10am 20.2 18.5 9.7 51 5.6 NNW 9 11 5 6 - - 0.0
24/10:00am 19.6 17.9 9.8 53 5.3 NW 9 13 5 7 - - 0.0
24/09:50am 19.7 18.6 9.8 52 5.3 NW 6 9 3 5 - - 0.0
24/09:40am 19.0 17.6 9.6 54 5.0 WNW 7 11 4 6 - - 0.0
24/09:30am 18.4 17.0 9.4 55 4.8 WNW 7 7 4 4 - - 0.0
24/09:20am 17.7 16.3 9.4 58 4.4 WNW 7 9 4 5 - - 0.0
24/09:10am 17.5 16.3 9.4 59 4.3 NW 6 7 3 4 - - 0.0
24/09:00am 17.1 15.9 9.4 60 4.0 WNW 6 7 3 4 - - 0.0
24/08:50am 16.4 15.8 9.1 62 3.8 NW 2 6 1 3 - - 0.0
24/08:40am 15.4 15.2 9.0 65 3.3 CALM 0 0 0 0 - - 0.0
24/08:30am 14.4 14.1 8.6 68 2.9 CALM 0 2 0 1 - - 0.0
24/08:20am 13.0 11.9 8.3 73 2.3 NNW 4 4 2 2 - - 0.0
24/08:10am 11.9 10.7 7.9 76 2.0 NNW 4 4 2 2 - - 0.0
24/08:00am 10.5 9.1 7.4 81 1.5 NNE 4 4 2 2 - - 0.0
24/07:50am 9.1 7.5 6.3 82 1.3 ENE 4 4 2 2 - - 0.0
24/07:40am 8.0 6.6 5.3 83 1.2 NNE 2 4 1 2 - - 0.0
24/07:30am 7.4 5.5 4.9 84 1.1 NNW 4 6 2 3 - - 0.0
24/07:20am 7.1 5.5 4.7 85 1.1 WNW 2 4 1 2 - - 0.0
24/07:10am 6.3 5.0 4.0 85 1.0 CALM 0 2 0 1 - - 0.0
24/07:00am 6.0 4.6 3.6 84 1.0 CALM 0 0 0 0 - - 0.0
24/06:50am 6.5 4.9 4.3 86 1.0 SSW 2 4 1 2 - - 0.0
24/06:40am 6.2 4.1 3.9 85 1.0 S 4 7 2 4 - - 0.0
24/06:30am 7.0 5.5 4.8 86 1.0 ESE 2 7 1 4 - - 0.0
24/06:20am 6.4 4.7 4.1 85 1.0 SW 2 6 1 3 - - 0.0
24/06:10am 6.6 4.6 4.3 85 1.0 NW 4 6 2 3 - - 0.0
24/06:00am 6.0 3.8 3.5 84 1.1 NNW 4 6 2 3 - - 0.0
24/05:50am 6.5 4.4 3.9 83 1.1 N 4 6 2 3 - - 0.0
24/05:40am 6.8 5.1 4.2 83 1.1 NNW 2 2 1 1 - - 0.0

Other formats

Comma delimited format used in spreadsheet applications
http://www.bom.gov.au/fwo/IDQ60801/IDQ60801.99115.axf

JavaScript Object Notation format (JSON) in row-major order
http://www.bom.gov.au/fwo/IDQ60801/IDQ60801.99115.json

Data quality

Most of these data are generated automatically and are frequently updated. Quality checks on data are not normally performed. It is possible for incorrect values to appear. Refer to information at About Latest Weather Observations and please check the disclaimer before using these data.